Country
Station

 

Weather  for  Hayden/Yampa Automatic Weather Observing/Reporting System  -  United States    United States

  
3 °C (37 °F)
    
 
 

Current METAR for Hayden/Yampa Automatic Weather Observing/Reporting System is :

KHDN 181456Z AUTO 09008KT 10SM OVC095 03/M02 A3036 RMK AO2 SLP268 T00331022 55001

 

This is a report for Hayden/Yampa Automatic Weather Observing/Reporting System - United States.
 
The report was made a moment ago, at 14:56 UTC .
The wind was blowing at a speed of 4.1 meters per second (9.2 miles per hour) from east (090°).
 
The temperature was 3 °C (37 °F), with a dew-point at -2 °C (28 °F).
The temperature felt like -1 °C (30 °F).
 
The atmospheric pressure was 1028 hPa (30.36 inHg).
The relative humidity was 69.6%.
 
The sky was overcast from a height of 2896 meter (9500 feet)
 
The overall visibility was 16.1 kilometers (10.0 miles).
 

 
 
 
 

Country :   A   B   C   D   E   F   G   H   I   J   K   L   M   N   O   P   Q   R   S   T   U   V   W   Y   Z

 

Site Info  |  Disclaimer  |  Credits  |  Privacy
Contact us  |  Add to favorites
© 2013-2018 METARs - All rights reserved